sensor_id;sensor_type;location;lat;lon;timestamp;P1;durP1;ratioP1;P2;durP2;ratioP2
40781;SDS011;26493;51.938;7.626;2023-01-08T00:01:06;15.90;;;8.07;;
40781;SDS011;26493;51.938;7.626;2023-01-08T00:03:32;15.57;;;8.43;;
40781;SDS011;26493;51.938;7.626;2023-01-08T00:05:59;14.90;;;7.63;;
40781;SDS011;26493;51.938;7.626;2023-01-08T00:08:26;15.43;;;8.27;;
40781;SDS011;26493;51.938;7.626;2023-01-08T00:10:55;15.18;;;8.10;;
40781;SDS011;26493;51.938;7.626;2023-01-08T00:13:21;15.18;;;8.18;;
40781;SDS011;26493;51.938;7.626;2023-01-08T00:15:47;15.82;;;8.00;;
40781;SDS011;26493;51.938;7.626;2023-01-08T00:18:13;15.63;;;8.02;;
40781;SDS011;26493;51.938;7.626;2023-01-08T00:20:42;16.10;;;7.97;;
40781;SDS011;26493;51.938;7.626;2023-01-08T00:23:12;15.68;;;8.20;;
40781;SDS011;26493;51.938;7.626;2023-01-08T00:25:38;15.93;;;8.23;;
40781;SDS011;26493;51.938;7.626;2023-01-08T00:28:04;15.25;;;7.80;;
40781;SDS011;26493;51.938;7.626;2023-01-08T00:30:30;15.57;;;8.15;;
40781;SDS011;26493;51.938;7.626;2023-01-08T00:32:56;15.20;;;7.72;;
40781;SDS011;26493;51.938;7.626;2023-01-08T00:35:22;15.30;;;7.97;;
40781;SDS011;26493;51.938;7.626;2023-01-08T00:37:48;15.25;;;7.72;;
40781;SDS011;26493;51.938;7.626;2023-01-08T00:40:14;14.98;;;7.90;;
40781;SDS011;26493;51.938;7.626;2023-01-08T00:42:40;14.52;;;7.65;;
40781;SDS011;26493;51.938;7.626;2023-01-08T00:45:06;15.90;;;8.55;;
40781;SDS011;26493;51.938;7.626;2023-01-08T00:47:32;15.50;;;8.02;;
40781;SDS011;26493;51.938;7.626;2023-01-08T00:49:58;17.38;;;8.25;;
40781;SDS011;26493;51.938;7.626;2023-01-08T00:52:24;15.52;;;7.72;;
40781;SDS011;26493;51.938;7.626;2023-01-08T00:54:50;13.60;;;7.45;;
40781;SDS011;26493;51.938;7.626;2023-01-08T00:57:17;15.30;;;7.55;;
40781;SDS011;26493;51.938;7.626;2023-01-08T00:59:43;15.10;;;7.80;;
40781;SDS011;26493;51.938;7.626;2023-01-08T01:02:09;15.32;;;7.95;;
40781;SDS011;26493;51.938;7.626;2023-01-08T01:04:35;14.82;;;8.07;;
40781;SDS011;26493;51.938;7.626;2023-01-08T01:07:01;14.88;;;8.27;;
40781;SDS011;26493;51.938;7.626;2023-01-08T01:09:27;14.60;;;8.20;;
40781;SDS011;26493;51.938;7.626;2023-01-08T01:11:53;14.57;;;7.50;;
40781;SDS011;26493;51.938;7.626;2023-01-08T01:14:19;14.30;;;7.43;;
40781;SDS011;26493;51.938;7.626;2023-01-08T01:16:45;13.70;;;7.03;;
40781;SDS011;26493;51.938;7.626;2023-01-08T01:19:13;15.02;;;7.30;;
40781;SDS011;26493;51.938;7.626;2023-01-08T01:21:39;15.93;;;7.60;;
40781;SDS011;26493;51.938;7.626;2023-01-08T01:24:05;14.50;;;7.38;;
40781;SDS011;26493;51.938;7.626;2023-01-08T01:26:31;13.65;;;7.10;;
40781;SDS011;26493;51.938;7.626;2023-01-08T01:28:58;14.50;;;7.70;;
40781;SDS011;26493;51.938;7.626;2023-01-08T01:31:25;15.00;;;7.30;;
40781;SDS011;26493;51.938;7.626;2023-01-08T01:33:51;14.15;;;7.18;;
40781;SDS011;26493;51.938;7.626;2023-01-08T01:36:18;14.05;;;6.75;;
40781;SDS011;26493;51.938;7.626;2023-01-08T01:38:45;13.30;;;6.75;;
40781;SDS011;26493;51.938;7.626;2023-01-08T01:41:20;13.45;;;6.72;;
40781;SDS011;26493;51.938;7.626;2023-01-08T01:43:48;13.77;;;7.13;;
40781;SDS011;26493;51.938;7.626;2023-01-08T01:48:56;14.95;;;7.68;;
40781;SDS011;26493;51.938;7.626;2023-01-08T01:51:24;14.75;;;7.68;;
40781;SDS011;26493;51.938;7.626;2023-01-08T01:53:51;14.27;;;7.18;;
40781;SDS011;26493;51.938;7.626;2023-01-08T01:56:17;12.73;;;6.75;;
40781;SDS011;26493;51.938;7.626;2023-01-08T01:58:43;13.52;;;7.25;;
40781;SDS011;26493;51.938;7.626;2023-01-08T02:01:09;13.52;;;7.22;;
40781;SDS011;26493;51.938;7.626;2023-01-08T02:03:36;13.55;;;7.25;;
40781;SDS011;26493;51.938;7.626;2023-01-08T02:06:18;14.02;;;6.88;;
40781;SDS011;26493;51.938;7.626;2023-01-08T02:14:00;14.50;;;7.50;;
40781;SDS011;26493;51.938;7.626;2023-01-08T02:16:37;13.57;;;7.20;;
40781;SDS011;26493;51.938;7.626;2023-01-08T02:26:41;14.45;;;7.70;;
40781;SDS011;26493;51.938;7.626;2023-01-08T02:29:10;14.27;;;7.70;;
40781;SDS011;26493;51.938;7.626;2023-01-08T02:31:39;15.38;;;8.30;;
40781;SDS011;26493;51.938;7.626;2023-01-08T02:34:06;14.27;;;7.88;;
40781;SDS011;26493;51.938;7.626;2023-01-08T02:41:51;13.52;;;6.85;;
40781;SDS011;26493;51.938;7.626;2023-01-08T02:44:22;15.23;;;7.80;;
40781;SDS011;26493;51.938;7.626;2023-01-08T02:46:50;13.68;;;7.07;;
40781;SDS011;26493;51.938;7.626;2023-01-08T02:49:17;13.80;;;7.20;;
40781;SDS011;26493;51.938;7.626;2023-01-08T02:51:46;14.38;;;7.00;;
40781;SDS011;26493;51.938;7.626;2023-01-08T02:54:15;15.98;;;7.60;;
40781;SDS011;26493;51.938;7.626;2023-01-08T02:56:46;14.55;;;7.57;;
40781;SDS011;26493;51.938;7.626;2023-01-08T02:59:14;16.83;;;7.90;;
40781;SDS011;26493;51.938;7.626;2023-01-08T03:01:40;15.07;;;7.65;;
40781;SDS011;26493;51.938;7.626;2023-01-08T03:04:12;15.70;;;7.22;;
40781;SDS011;26493;51.938;7.626;2023-01-08T03:06:39;14.80;;;7.50;;
40781;SDS011;26493;51.938;7.626;2023-01-08T03:09:05;14.90;;;7.28;;
40781;SDS011;26493;51.938;7.626;2023-01-08T03:11:33;14.68;;;7.13;;
40781;SDS011;26493;51.938;7.626;2023-01-08T03:14:03;14.73;;;7.38;;
40781;SDS011;26493;51.938;7.626;2023-01-08T03:16:32;14.52;;;7.72;;
40781;SDS011;26493;51.938;7.626;2023-01-08T03:19:10;13.90;;;7.28;;
40781;SDS011;26493;51.938;7.626;2023-01-08T03:21:37;14.02;;;7.40;;
40781;SDS011;26493;51.938;7.626;2023-01-08T03:24:04;13.90;;;7.15;;
40781;SDS011;26493;51.938;7.626;2023-01-08T03:26:31;13.90;;;7.28;;
40781;SDS011;26493;51.938;7.626;2023-01-08T03:28:57;14.95;;;7.28;;
40781;SDS011;26493;51.938;7.626;2023-01-08T03:31:24;13.80;;;7.30;;
40781;SDS011;26493;51.938;7.626;2023-01-08T03:33:51;14.10;;;7.70;;
40781;SDS011;26493;51.938;7.626;2023-01-08T03:36:20;14.07;;;7.20;;
40781;SDS011;26493;51.938;7.626;2023-01-08T03:38:49;14.68;;;7.40;;
40781;SDS011;26493;51.938;7.626;2023-01-08T03:41:18;14.68;;;7.50;;
40781;SDS011;26493;51.938;7.626;2023-01-08T03:43:47;14.77;;;7.20;;
40781;SDS011;26493;51.938;7.626;2023-01-08T03:46:14;16.27;;;8.75;;
40781;SDS011;26493;51.938;7.626;2023-01-08T03:48:41;14.38;;;7.15;;
40781;SDS011;26493;51.938;7.626;2023-01-08T03:51:08;15.13;;;7.60;;
40781;SDS011;26493;51.938;7.626;2023-01-08T03:53:35;14.43;;;7.45;;
40781;SDS011;26493;51.938;7.626;2023-01-08T03:56:01;15.27;;;7.40;;
40781;SDS011;26493;51.938;7.626;2023-01-08T03:58:27;17.67;;;7.72;;
40781;SDS011;26493;51.938;7.626;2023-01-08T04:00:53;16.95;;;8.18;;
40781;SDS011;26493;51.938;7.626;2023-01-08T04:03:19;14.40;;;7.75;;
40781;SDS011;26493;51.938;7.626;2023-01-08T04:05:45;15.35;;;7.50;;
40781;SDS011;26493;51.938;7.626;2023-01-08T04:08:11;15.07;;;7.30;;
40781;SDS011;26493;51.938;7.626;2023-01-08T04:10:37;13.65;;;7.20;;
40781;SDS011;26493;51.938;7.626;2023-01-08T04:13:03;14.32;;;7.30;;
40781;SDS011;26493;51.938;7.626;2023-01-08T04:15:29;15.68;;;7.53;;
40781;SDS011;26493;51.938;7.626;2023-01-08T04:17:55;15.05;;;7.65;;
40781;SDS011;26493;51.938;7.626;2023-01-08T04:20:21;14.60;;;7.70;;
40781;SDS011;26493;51.938;7.626;2023-01-08T04:22:47;16.63;;;8.10;;
40781;SDS011;26493;51.938;7.626;2023-01-08T04:25:13;15.57;;;7.82;;
40781;SDS011;26493;51.938;7.626;2023-01-08T04:27:39;14.95;;;7.70;;
40781;SDS011;26493;51.938;7.626;2023-01-08T04:30:05;17.33;;;7.95;;
40781;SDS011;26493;51.938;7.626;2023-01-08T04:32:31;15.65;;;7.60;;
40781;SDS011;26493;51.938;7.626;2023-01-08T04:34:57;14.60;;;7.85;;
40781;SDS011;26493;51.938;7.626;2023-01-08T04:37:23;16.35;;;8.43;;
40781;SDS011;26493;51.938;7.626;2023-01-08T04:39:49;15.30;;;7.88;;
40781;SDS011;26493;51.938;7.626;2023-01-08T04:42:15;14.43;;;7.60;;
40781;SDS011;26493;51.938;7.626;2023-01-08T04:44:41;15.20;;;7.95;;
40781;SDS011;26493;51.938;7.626;2023-01-08T04:47:07;15.73;;;7.72;;
40781;SDS011;26493;51.938;7.626;2023-01-08T04:49:33;15.35;;;8.05;;
40781;SDS011;26493;51.938;7.626;2023-01-08T04:51:59;16.23;;;8.05;;
40781;SDS011;26493;51.938;7.626;2023-01-08T04:54:25;14.85;;;8.15;;
40781;SDS011;26493;51.938;7.626;2023-01-08T04:56:51;15.25;;;8.00;;
40781;SDS011;26493;51.938;7.626;2023-01-08T04:59:17;15.63;;;8.30;;
40781;SDS011;26493;51.938;7.626;2023-01-08T05:01:43;15.88;;;8.43;;
40781;SDS011;26493;51.938;7.626;2023-01-08T05:04:09;13.98;;;7.55;;
40781;SDS011;26493;51.938;7.626;2023-01-08T05:06:35;15.80;;;8.32;;
40781;SDS011;26493;51.938;7.626;2023-01-08T05:09:02;14.63;;;7.82;;
40781;SDS011;26493;51.938;7.626;2023-01-08T05:11:28;14.77;;;7.63;;
40781;SDS011;26493;51.938;7.626;2023-01-08T05:13:54;13.52;;;7.40;;
40781;SDS011;26493;51.938;7.626;2023-01-08T05:16:20;14.88;;;7.53;;
40781;SDS011;26493;51.938;7.626;2023-01-08T05:18:47;14.32;;;7.70;;
40781;SDS011;26493;51.938;7.626;2023-01-08T05:21:13;14.43;;;8.20;;
40781;SDS011;26493;51.938;7.626;2023-01-08T05:23:39;15.02;;;7.88;;
40781;SDS011;26493;51.938;7.626;2023-01-08T05:26:05;13.95;;;7.35;;
40781;SDS011;26493;51.938;7.626;2023-01-08T05:28:32;14.95;;;7.80;;
40781;SDS011;26493;51.938;7.626;2023-01-08T05:30:58;14.55;;;7.90;;
40781;SDS011;26493;51.938;7.626;2023-01-08T05:33:24;15.63;;;7.63;;
40781;SDS011;26493;51.938;7.626;2023-01-08T05:35:50;14.07;;;7.65;;
40781;SDS011;26493;51.938;7.626;2023-01-08T05:38:16;15.70;;;8.10;;
40781;SDS011;26493;51.938;7.626;2023-01-08T05:40:43;14.02;;;7.53;;
40781;SDS011;26493;51.938;7.626;2023-01-08T05:43:09;14.30;;;7.72;;
40781;SDS011;26493;51.938;7.626;2023-01-08T05:45:35;16.52;;;7.90;;
40781;SDS011;26493;51.938;7.626;2023-01-08T05:48:04;14.73;;;7.60;;
40781;SDS011;26493;51.938;7.626;2023-01-08T05:50:31;14.02;;;7.65;;
40781;SDS011;26493;51.938;7.626;2023-01-08T05:52:57;13.70;;;7.30;;
40781;SDS011;26493;51.938;7.626;2023-01-08T05:55:23;14.90;;;7.47;;
40781;SDS011;26493;51.938;7.626;2023-01-08T05:57:49;14.32;;;7.82;;
40781;SDS011;26493;51.938;7.626;2023-01-08T06:00:15;16.25;;;7.63;;
40781;SDS011;26493;51.938;7.626;2023-01-08T06:02:48;13.90;;;7.55;;
40781;SDS011;26493;51.938;7.626;2023-01-08T06:05:14;14.07;;;7.80;;
40781;SDS011;26493;51.938;7.626;2023-01-08T06:07:40;14.50;;;7.60;;
40781;SDS011;26493;51.938;7.626;2023-01-08T06:10:06;14.13;;;7.30;;
40781;SDS011;26493;51.938;7.626;2023-01-08T06:12:32;13.75;;;7.20;;
40781;SDS011;26493;51.938;7.626;2023-01-08T06:14:58;14.30;;;7.30;;
40781;SDS011;26493;51.938;7.626;2023-01-08T06:17:24;13.82;;;7.55;;
40781;SDS011;26493;51.938;7.626;2023-01-08T06:19:50;14.30;;;7.20;;
40781;SDS011;26493;51.938;7.626;2023-01-08T06:22:16;13.43;;;7.13;;
40781;SDS011;26493;51.938;7.626;2023-01-08T06:24:42;13.35;;;7.00;;
40781;SDS011;26493;51.938;7.626;2023-01-08T06:27:08;13.23;;;7.20;;
40781;SDS011;26493;51.938;7.626;2023-01-08T06:29:34;13.13;;;6.70;;
40781;SDS011;26493;51.938;7.626;2023-01-08T06:32:00;13.60;;;7.03;;
40781;SDS011;26493;51.938;7.626;2023-01-08T06:34:26;12.32;;;6.65;;
40781;SDS011;26493;51.938;7.626;2023-01-08T06:36:52;12.80;;;6.93;;
40781;SDS011;26493;51.938;7.626;2023-01-08T06:39:18;12.70;;;6.65;;
40781;SDS011;26493;51.938;7.626;2023-01-08T06:41:44;16.13;;;8.70;;
40781;SDS011;26493;51.938;7.626;2023-01-08T06:44:10;13.82;;;7.10;;
40781;SDS011;26493;51.938;7.626;2023-01-08T06:46:36;13.68;;;7.28;;
40781;SDS011;26493;51.938;7.626;2023-01-08T06:49:07;13.35;;;7.30;;
40781;SDS011;26493;51.938;7.626;2023-01-08T06:51:33;14.50;;;7.40;;
40781;SDS011;26493;51.938;7.626;2023-01-08T06:54:00;13.23;;;7.25;;
40781;SDS011;26493;51.938;7.626;2023-01-08T06:56:26;14.43;;;7.35;;
40781;SDS011;26493;51.938;7.626;2023-01-08T06:58:52;13.57;;;7.13;;
40781;SDS011;26493;51.938;7.626;2023-01-08T07:01:18;13.80;;;7.00;;
40781;SDS011;26493;51.938;7.626;2023-01-08T07:03:46;14.05;;;7.38;;
40781;SDS011;26493;51.938;7.626;2023-01-08T07:06:16;14.13;;;7.53;;
40781;SDS011;26493;51.938;7.626;2023-01-08T07:08:43;13.50;;;7.10;;
40781;SDS011;26493;51.938;7.626;2023-01-08T07:11:09;13.75;;;6.93;;
40781;SDS011;26493;51.938;7.626;2023-01-08T07:13:35;14.25;;;7.20;;
40781;SDS011;26493;51.938;7.626;2023-01-08T07:16:07;13.30;;;7.20;;
40781;SDS011;26493;51.938;7.626;2023-01-08T07:18:34;13.65;;;7.20;;
40781;SDS011;26493;51.938;7.626;2023-01-08T07:21:01;14.27;;;7.47;;
40781;SDS011;26493;51.938;7.626;2023-01-08T07:23:27;15.80;;;7.60;;
40781;SDS011;26493;51.938;7.626;2023-01-08T07:25:53;12.82;;;6.95;;
40781;SDS011;26493;51.938;7.626;2023-01-08T07:28:19;13.02;;;6.70;;
40781;SDS011;26493;51.938;7.626;2023-01-08T07:30:45;12.05;;;6.35;;
40781;SDS011;26493;51.938;7.626;2023-01-08T07:33:11;12.00;;;6.32;;
40781;SDS011;26493;51.938;7.626;2023-01-08T07:35:37;13.70;;;6.50;;
40781;SDS011;26493;51.938;7.626;2023-01-08T07:38:03;13.43;;;7.15;;
40781;SDS011;26493;51.938;7.626;2023-01-08T07:40:29;16.17;;;8.15;;
40781;SDS011;26493;51.938;7.626;2023-01-08T07:42:59;14.57;;;7.97;;
40781;SDS011;26493;51.938;7.626;2023-01-08T07:45:26;14.90;;;8.70;;
40781;SDS011;26493;51.938;7.626;2023-01-08T07:47:52;15.25;;;8.07;;
40781;SDS011;26493;51.938;7.626;2023-01-08T07:50:18;13.65;;;7.72;;
40781;SDS011;26493;51.938;7.626;2023-01-08T07:52:44;14.23;;;8.13;;
40781;SDS011;26493;51.938;7.626;2023-01-08T07:55:10;15.23;;;8.00;;
40781;SDS011;26493;51.938;7.626;2023-01-08T07:57:36;14.15;;;7.97;;
40781;SDS011;26493;51.938;7.626;2023-01-08T08:00:02;14.18;;;8.07;;
40781;SDS011;26493;51.938;7.626;2023-01-08T08:02:28;14.43;;;8.07;;
40781;SDS011;26493;51.938;7.626;2023-01-08T08:04:54;16.90;;;7.95;;
40781;SDS011;26493;51.938;7.626;2023-01-08T08:07:20;14.15;;;7.90;;
40781;SDS011;26493;51.938;7.626;2023-01-08T08:09:46;14.93;;;9.00;;
40781;SDS011;26493;51.938;7.626;2023-01-08T08:12:12;16.52;;;8.90;;
40781;SDS011;26493;51.938;7.626;2023-01-08T08:14:38;17.13;;;8.98;;
40781;SDS011;26493;51.938;7.626;2023-01-08T08:17:04;14.63;;;9.10;;
40781;SDS011;26493;51.938;7.626;2023-01-08T08:19:30;14.45;;;8.63;;
40781;SDS011;26493;51.938;7.626;2023-01-08T08:21:56;16.02;;;9.57;;
40781;SDS011;26493;51.938;7.626;2023-01-08T08:24:22;15.95;;;9.10;;
40781;SDS011;26493;51.938;7.626;2023-01-08T08:26:49;15.65;;;8.75;;
40781;SDS011;26493;51.938;7.626;2023-01-08T08:29:15;15.18;;;8.52;;
40781;SDS011;26493;51.938;7.626;2023-01-08T08:31:41;14.85;;;8.88;;
40781;SDS011;26493;51.938;7.626;2023-01-08T08:34:07;15.55;;;9.35;;
40781;SDS011;26493;51.938;7.626;2023-01-08T08:36:33;14.82;;;9.27;;
40781;SDS011;26493;51.938;7.626;2023-01-08T08:39:00;17.25;;;9.60;;
40781;SDS011;26493;51.938;7.626;2023-01-08T08:41:26;15.60;;;9.60;;
40781;SDS011;26493;51.938;7.626;2023-01-08T08:43:52;16.48;;;10.10;;
40781;SDS011;26493;51.938;7.626;2023-01-08T08:46:18;16.30;;;9.88;;
40781;SDS011;26493;51.938;7.626;2023-01-08T08:48:45;16.15;;;9.90;;
40781;SDS011;26493;51.938;7.626;2023-01-08T08:51:11;15.18;;;9.38;;
40781;SDS011;26493;51.938;7.626;2023-01-08T08:53:37;18.05;;;9.63;;
40781;SDS011;26493;51.938;7.626;2023-01-08T08:56:03;15.30;;;9.40;;
40781;SDS011;26493;51.938;7.626;2023-01-08T08:58:29;14.80;;;9.10;;
40781;SDS011;26493;51.938;7.626;2023-01-08T09:00:59;16.35;;;8.98;;
40781;SDS011;26493;51.938;7.626;2023-01-08T09:03:25;15.32;;;8.45;;
40781;SDS011;26493;51.938;7.626;2023-01-08T09:05:51;15.02;;;8.40;;
40781;SDS011;26493;51.938;7.626;2023-01-08T09:08:17;15.13;;;7.80;;
40781;SDS011;26493;51.938;7.626;2023-01-08T09:10:43;15.88;;;8.30;;
40781;SDS011;26493;51.938;7.626;2023-01-08T09:13:10;15.25;;;7.90;;
40781;SDS011;26493;51.938;7.626;2023-01-08T09:15:36;18.20;;;9.15;;
40781;SDS011;26493;51.938;7.626;2023-01-08T09:18:03;16.40;;;10.15;;
40781;SDS011;26493;51.938;7.626;2023-01-08T09:20:29;14.27;;;8.80;;
40781;SDS011;26493;51.938;7.626;2023-01-08T09:22:58;16.35;;;8.55;;
40781;SDS011;26493;51.938;7.626;2023-01-08T09:25:25;14.80;;;8.07;;
40781;SDS011;26493;51.938;7.626;2023-01-08T09:30:43;16.25;;;8.85;;
40781;SDS011;26493;51.938;7.626;2023-01-08T09:33:09;15.75;;;8.70;;
40781;SDS011;26493;51.938;7.626;2023-01-08T09:35:35;15.85;;;8.30;;
40781;SDS011;26493;51.938;7.626;2023-01-08T09:38:01;15.15;;;8.48;;
40781;SDS011;26493;51.938;7.626;2023-01-08T09:40:30;16.10;;;8.63;;
40781;SDS011;26493;51.938;7.626;2023-01-08T09:42:58;13.85;;;7.72;;
40781;SDS011;26493;51.938;7.626;2023-01-08T09:45:26;16.13;;;7.60;;
40781;SDS011;26493;51.938;7.626;2023-01-08T09:47:53;15.20;;;7.93;;
40781;SDS011;26493;51.938;7.626;2023-01-08T09:50:19;14.60;;;7.65;;
40781;SDS011;26493;51.938;7.626;2023-01-08T09:52:46;18.00;;;8.43;;
40781;SDS011;26493;51.938;7.626;2023-01-08T09:55:13;14.27;;;7.75;;
40781;SDS011;26493;51.938;7.626;2023-01-08T09:57:39;14.60;;;7.43;;
40781;SDS011;26493;51.938;7.626;2023-01-08T10:00:11;15.80;;;8.13;;
40781;SDS011;26493;51.938;7.626;2023-01-08T10:02:38;14.52;;;7.47;;
40781;SDS011;26493;51.938;7.626;2023-01-08T10:05:09;15.20;;;7.30;;
40781;SDS011;26493;51.938;7.626;2023-01-08T10:07:35;15.52;;;7.32;;
40781;SDS011;26493;51.938;7.626;2023-01-08T10:10:01;14.10;;;7.30;;
40781;SDS011;26493;51.938;7.626;2023-01-08T10:12:28;13.82;;;7.03;;
40781;SDS011;26493;51.938;7.626;2023-01-08T10:14:56;21.75;;;8.20;;
40781;SDS011;26493;51.938;7.626;2023-01-08T10:17:39;15.93;;;7.40;;
40781;SDS011;26493;51.938;7.626;2023-01-08T10:22:41;16.33;;;7.60;;
40781;SDS011;26493;51.938;7.626;2023-01-08T10:25:26;15.13;;;7.40;;
40781;SDS011;26493;51.938;7.626;2023-01-08T10:27:55;14.10;;;7.18;;
40781;SDS011;26493;51.938;7.626;2023-01-08T10:30:43;17.65;;;7.68;;
40781;SDS011;26493;51.938;7.626;2023-01-08T10:33:09;14.55;;;6.80;;
40781;SDS011;26493;51.938;7.626;2023-01-08T10:35:37;13.20;;;6.87;;
40781;SDS011;26493;51.938;7.626;2023-01-08T10:38:03;15.60;;;7.40;;
40781;SDS011;26493;51.938;7.626;2023-01-08T10:40:36;17.90;;;7.57;;
40781;SDS011;26493;51.938;7.626;2023-01-08T10:43:23;15.80;;;7.88;;
40781;SDS011;26493;51.938;7.626;2023-01-08T10:48:17;16.20;;;7.00;;
40781;SDS011;26493;51.938;7.626;2023-01-08T10:50:43;15.23;;;7.40;;
40781;SDS011;26493;51.938;7.626;2023-01-08T10:53:22;19.52;;;7.57;;
40781;SDS011;26493;51.938;7.626;2023-01-08T10:56:02;17.02;;;8.05;;
40781;SDS011;26493;51.938;7.626;2023-01-08T10:58:29;15.20;;;7.18;;
40781;SDS011;26493;51.938;7.626;2023-01-08T11:01:08;15.98;;;7.13;;
40781;SDS011;26493;51.938;7.626;2023-01-08T11:03:35;15.63;;;7.78;;
40781;SDS011;26493;51.938;7.626;2023-01-08T11:06:08;21.75;;;8.05;;
40781;SDS011;26493;51.938;7.626;2023-01-08T11:08:35;15.68;;;8.05;;
40781;SDS011;26493;51.938;7.626;2023-01-08T11:11:01;18.35;;;8.15;;
40781;SDS011;26493;51.938;7.626;2023-01-08T11:13:27;17.30;;;7.93;;
40781;SDS011;26493;51.938;7.626;2023-01-08T11:16:04;19.05;;;8.10;;
40781;SDS011;26493;51.938;7.626;2023-01-08T11:18:33;17.45;;;8.70;;
40781;SDS011;26493;51.938;7.626;2023-01-08T11:21:08;17.38;;;8.13;;
40781;SDS011;26493;51.938;7.626;2023-01-08T11:23:35;18.13;;;8.52;;
40781;SDS011;26493;51.938;7.626;2023-01-08T11:28:40;18.13;;;9.40;;
40781;SDS011;26493;51.938;7.626;2023-01-08T11:31:11;18.20;;;8.00;;
40781;SDS011;26493;51.938;7.626;2023-01-08T11:33:38;19.77;;;8.27;;
40781;SDS011;26493;51.938;7.626;2023-01-08T11:36:12;16.65;;;8.50;;
40781;SDS011;26493;51.938;7.626;2023-01-08T11:38:43;15.00;;;8.00;;
40781;SDS011;26493;51.938;7.626;2023-01-08T11:46:32;16.38;;;7.43;;
40781;SDS011;26493;51.938;7.626;2023-01-08T11:51:48;16.23;;;7.78;;
40781;SDS011;26493;51.938;7.626;2023-01-08T12:02:17;14.43;;;7.75;;
40781;SDS011;26493;51.938;7.626;2023-01-08T12:10:11;14.13;;;7.25;;
40781;SDS011;26493;51.938;7.626;2023-01-08T12:12:46;15.20;;;7.25;;
40781;SDS011;26493;51.938;7.626;2023-01-08T12:15:19;15.07;;;7.47;;
40781;SDS011;26493;51.938;7.626;2023-01-08T12:20:41;16.15;;;7.78;;
40781;SDS011;26493;51.938;7.626;2023-01-08T12:28:43;17.48;;;7.85;;
40781;SDS011;26493;51.938;7.626;2023-01-08T12:33:47;15.32;;;7.47;;
40781;SDS011;26493;51.938;7.626;2023-01-08T12:36:17;18.58;;;8.38;;
40781;SDS011;26493;51.938;7.626;2023-01-08T12:38:50;15.85;;;7.60;;
40781;SDS011;26493;51.938;7.626;2023-01-08T12:41:18;16.40;;;7.57;;
40781;SDS011;26493;51.938;7.626;2023-01-08T12:43:55;15.73;;;7.75;;
40781;SDS011;26493;51.938;7.626;2023-01-08T12:46:23;15.23;;;7.53;;
40781;SDS011;26493;51.938;7.626;2023-01-08T12:48:50;17.17;;;8.18;;
40781;SDS011;26493;51.938;7.626;2023-01-08T12:51:38;14.10;;;7.60;;
40781;SDS011;26493;51.938;7.626;2023-01-08T12:56:34;17.48;;;8.10;;
40781;SDS011;26493;51.938;7.626;2023-01-08T12:59:09;14.57;;;8.00;;
40781;SDS011;26493;51.938;7.626;2023-01-08T13:04:14;14.95;;;7.60;;
40781;SDS011;26493;51.938;7.626;2023-01-08T13:07:42;14.85;;;7.00;;
40781;SDS011;26493;51.938;7.626;2023-01-08T13:09:36;16.05;;;7.55;;
40781;SDS011;26493;51.938;7.626;2023-01-08T13:12:02;16.35;;;7.15;;
40781;SDS011;26493;51.938;7.626;2023-01-08T13:14:38;14.35;;;6.80;;
40781;SDS011;26493;51.938;7.626;2023-01-08T13:17:05;15.80;;;8.10;;
40781;SDS011;26493;51.938;7.626;2023-01-08T13:19:40;13.55;;;7.03;;
40781;SDS011;26493;51.938;7.626;2023-01-08T13:27:43;14.50;;;6.88;;
40781;SDS011;26493;51.938;7.626;2023-01-08T13:32:54;39.80;;;36.72;;
40781;SDS011;26493;51.938;7.626;2023-01-08T13:35:29;34.50;;;32.00;;
40781;SDS011;26493;51.938;7.626;2023-01-08T13:48:24;18.17;;;14.98;;
40781;SDS011;26493;51.938;7.626;2023-01-08T13:50:50;16.88;;;11.88;;
40781;SDS011;26493;51.938;7.626;2023-01-08T13:53:17;15.00;;;11.63;;
40781;SDS011;26493;51.938;7.626;2023-01-08T13:55:54;19.33;;;17.42;;
40781;SDS011;26493;51.938;7.626;2023-01-08T13:58:32;21.33;;;19.33;;
40781;SDS011;26493;51.938;7.626;2023-01-08T14:00:58;18.67;;;16.75;;
40781;SDS011;26493;51.938;7.626;2023-01-08T14:03:26;18.67;;;15.98;;
40781;SDS011;26493;51.938;7.626;2023-01-08T14:06:03;16.33;;;12.52;;
40781;SDS011;26493;51.938;7.626;2023-01-08T14:08:29;16.40;;;11.43;;
40781;SDS011;26493;51.938;7.626;2023-01-08T14:10:55;15.40;;;12.50;;
40781;SDS011;26493;51.938;7.626;2023-01-08T14:13:25;17.40;;;13.80;;
40781;SDS011;26493;51.938;7.626;2023-01-08T14:15:52;15.77;;;12.20;;
40781;SDS011;26493;51.938;7.626;2023-01-08T14:18:19;21.17;;;15.75;;
40781;SDS011;26493;51.938;7.626;2023-01-08T14:20:47;17.48;;;15.68;;
40781;SDS011;26493;51.938;7.626;2023-01-08T14:23:35;15.50;;;13.70;;
40781;SDS011;26493;51.938;7.626;2023-01-08T14:26:02;15.45;;;13.00;;
40781;SDS011;26493;51.938;7.626;2023-01-08T14:28:30;14.93;;;10.27;;
40781;SDS011;26493;51.938;7.626;2023-01-08T14:30:56;14.23;;;9.00;;
40781;SDS011;26493;51.938;7.626;2023-01-08T14:33:23;15.05;;;7.68;;
40781;SDS011;26493;51.938;7.626;2023-01-08T14:35:51;14.07;;;7.40;;
40781;SDS011;26493;51.938;7.626;2023-01-08T14:38:19;13.00;;;7.50;;
40781;SDS011;26493;51.938;7.626;2023-01-08T14:41:05;13.70;;;7.60;;
40781;SDS011;26493;51.938;7.626;2023-01-08T14:43:32;14.90;;;8.00;;
40781;SDS011;26493;51.938;7.626;2023-01-08T14:45:59;13.80;;;7.40;;
40781;SDS011;26493;51.938;7.626;2023-01-08T14:48:33;15.13;;;7.80;;
40781;SDS011;26493;51.938;7.626;2023-01-08T14:51:08;15.30;;;8.32;;
40781;SDS011;26493;51.938;7.626;2023-01-08T14:53:42;15.38;;;8.40;;
40781;SDS011;26493;51.938;7.626;2023-01-08T14:56:12;13.98;;;8.10;;
40781;SDS011;26493;51.938;7.626;2023-01-08T14:58:41;15.88;;;8.27;;
40781;SDS011;26493;51.938;7.626;2023-01-08T15:01:12;13.35;;;7.97;;
40781;SDS011;26493;51.938;7.626;2023-01-08T15:03:40;15.32;;;8.20;;
40781;SDS011;26493;51.938;7.626;2023-01-08T15:06:09;14.90;;;8.32;;
40781;SDS011;26493;51.938;7.626;2023-01-08T15:08:40;14.07;;;8.60;;
40781;SDS011;26493;51.938;7.626;2023-01-08T15:11:10;15.05;;;9.18;;
40781;SDS011;26493;51.938;7.626;2023-01-08T15:13:44;15.10;;;9.10;;
40781;SDS011;26493;51.938;7.626;2023-01-08T15:18:49;21.20;;;9.90;;
40781;SDS011;26493;51.938;7.626;2023-01-08T15:21:17;16.98;;;9.70;;
40781;SDS011;26493;51.938;7.626;2023-01-08T15:23:45;16.25;;;10.27;;
40781;SDS011;26493;51.938;7.626;2023-01-08T15:26:12;16.88;;;10.77;;
40781;SDS011;26493;51.938;7.626;2023-01-08T15:28:53;15.43;;;10.02;;
40781;SDS011;26493;51.938;7.626;2023-01-08T15:31:32;14.88;;;9.98;;
40781;SDS011;26493;51.938;7.626;2023-01-08T15:34:09;16.20;;;9.93;;
40781;SDS011;26493;51.938;7.626;2023-01-08T15:36:35;16.15;;;9.95;;
40781;SDS011;26493;51.938;7.626;2023-01-08T15:39:02;16.13;;;10.40;;
40781;SDS011;26493;51.938;7.626;2023-01-08T15:41:35;15.27;;;10.40;;
40781;SDS011;26493;51.938;7.626;2023-01-08T15:44:20;16.83;;;10.20;;
40781;SDS011;26493;51.938;7.626;2023-01-08T15:46:46;15.35;;;9.90;;
40781;SDS011;26493;51.938;7.626;2023-01-08T15:49:12;16.38;;;10.55;;
40781;SDS011;26493;51.938;7.626;2023-01-08T15:51:42;15.10;;;10.45;;
40781;SDS011;26493;51.938;7.626;2023-01-08T15:54:10;16.23;;;10.68;;
40781;SDS011;26493;51.938;7.626;2023-01-08T15:56:36;19.75;;;10.60;;
40781;SDS011;26493;51.938;7.626;2023-01-08T15:59:02;16.92;;;10.57;;
40781;SDS011;26493;51.938;7.626;2023-01-08T16:01:28;17.00;;;10.55;;
40781;SDS011;26493;51.938;7.626;2023-01-08T16:03:55;17.40;;;11.57;;
40781;SDS011;26493;51.938;7.626;2023-01-08T16:06:21;16.10;;;10.77;;
40781;SDS011;26493;51.938;7.626;2023-01-08T16:08:47;15.70;;;10.23;;